Terminal Aerodrome Forecast
Issued by NWS

Home | Current Version | Previous Version | Graphics & Text | Print | Product List | Glossary On
Versions: 1 2 3 4 5 6 7 8 9 10 11 12 13 14 15 16 17 18 19 20 21
451
FTUS43 KGRB 281134
TAFMTW
TAF
KMTW 281134Z 2812/2912 03007G14KT P6SM VCSH SCT006 BKN040
      TEMPO 2812/2816 5SM -RA BR BKN006 BKN012
     FM281600 05009G15KT P6SM VCSH SCT008 BKN020
     FM282000 04010G15KT P6SM FEW020 BKN050
     FM290400 03007KT P6SM SCT060 BKN100=

USA.gov is the U.S. government's official web portal to all federal, state and local government web resources and services.